sensor_id;sensor_type;location;lat;lon;timestamp;P1;durP1;ratioP1;P2;durP2;ratioP2
72761;SDS011;60886;55.034;73.150;2023-03-21T00:02:19;4.70;;;1.10;;
72761;SDS011;60886;55.034;73.150;2023-03-21T00:05:21;8.40;;;1.83;;
72761;SDS011;60886;55.034;73.150;2023-03-21T00:08:23;7.13;;;1.40;;
72761;SDS011;60886;55.034;73.150;2023-03-21T00:11:25;7.37;;;2.27;;
72761;SDS011;60886;55.034;73.150;2023-03-21T00:14:27;11.73;;;2.00;;
72761;SDS011;60886;55.034;73.150;2023-03-21T00:18:07;5.85;;;1.50;;
72761;SDS011;60886;55.034;73.150;2023-03-21T00:21:45;9.37;;;2.10;;
72761;SDS011;60886;55.034;73.150;2023-03-21T00:24:57;6.60;;;1.70;;
72761;SDS011;60886;55.034;73.150;2023-03-21T00:28:00;7.00;;;1.50;;
72761;SDS011;60886;55.034;73.150;2023-03-21T00:31:02;9.30;;;1.97;;
72761;SDS011;60886;55.034;73.150;2023-03-21T00:34:04;16.15;;;2.30;;
72761;SDS011;60886;55.034;73.150;2023-03-21T00:37:05;13.07;;;1.97;;
72761;SDS011;60886;55.034;73.150;2023-03-21T00:40:14;10.54;;;2.04;;
72761;SDS011;60886;55.034;73.150;2023-03-21T00:43:16;6.75;;;1.63;;
72761;SDS011;60886;55.034;73.150;2023-03-21T00:46:19;6.22;;;1.88;;
72761;SDS011;60886;55.034;73.150;2023-03-21T00:49:20;10.30;;;2.20;;
72761;SDS011;60886;55.034;73.150;2023-03-21T00:52:28;9.33;;;2.43;;
72761;SDS011;60886;55.034;73.150;2023-03-21T00:55:34;7.80;;;2.50;;
72761;SDS011;60886;55.034;73.150;2023-03-21T00:58:35;9.20;;;2.30;;
72761;SDS011;60886;55.034;73.150;2023-03-21T01:01:37;11.80;;;2.57;;
72761;SDS011;60886;55.034;73.150;2023-03-21T01:04:41;12.35;;;2.47;;
72761;SDS011;60886;55.034;73.150;2023-03-21T01:07:42;14.10;;;2.88;;
72761;SDS011;60886;55.034;73.150;2023-03-21T01:10:44;10.67;;;2.17;;
72761;SDS011;60886;55.034;73.150;2023-03-21T01:13:57;9.38;;;3.10;;
72761;SDS011;60886;55.034;73.150;2023-03-21T01:16:58;10.70;;;2.30;;
72761;SDS011;60886;55.034;73.150;2023-03-21T01:20:00;9.05;;;2.53;;
72761;SDS011;60886;55.034;73.150;2023-03-21T01:23:03;6.63;;;1.73;;
72761;SDS011;60886;55.034;73.150;2023-03-21T01:26:05;10.75;;;2.60;;
72761;SDS011;60886;55.034;73.150;2023-03-21T01:29:07;10.53;;;2.17;;
72761;SDS011;60886;55.034;73.150;2023-03-21T01:32:09;8.70;;;2.42;;
72761;SDS011;60886;55.034;73.150;2023-03-21T01:35:14;16.98;;;2.50;;
72761;SDS011;60886;55.034;73.150;2023-03-21T01:38:16;10.80;;;2.50;;
72761;SDS011;60886;55.034;73.150;2023-03-21T01:44:50;14.32;;;2.85;;
72761;SDS011;60886;55.034;73.150;2023-03-21T01:47:53;16.03;;;3.17;;
72761;SDS011;60886;55.034;73.150;2023-03-21T01:50:57;13.63;;;2.90;;
72761;SDS011;60886;55.034;73.150;2023-03-21T01:54:31;12.75;;;2.72;;
72761;SDS011;60886;55.034;73.150;2023-03-21T01:57:39;10.33;;;2.90;;
72761;SDS011;60886;55.034;73.150;2023-03-21T02:00:58;10.87;;;2.97;;
72761;SDS011;60886;55.034;73.150;2023-03-21T02:04:14;9.20;;;2.92;;
72761;SDS011;60886;55.034;73.150;2023-03-21T02:07:44;9.80;;;2.60;;
72761;SDS011;60886;55.034;73.150;2023-03-21T02:11:00;13.10;;;3.33;;
72761;SDS011;60886;55.034;73.150;2023-03-21T02:14:13;8.98;;;2.35;;
72761;SDS011;60886;55.034;73.150;2023-03-21T02:28:14;10.95;;;2.13;;
72761;SDS011;60886;55.034;73.150;2023-03-21T02:45:17;7.60;;;2.46;;
72761;SDS011;60886;55.034;73.150;2023-03-21T02:48:38;10.60;;;2.45;;
72761;SDS011;60886;55.034;73.150;2023-03-21T02:51:55;7.63;;;1.60;;
72761;SDS011;60886;55.034;73.150;2023-03-21T02:54:59;9.10;;;2.40;;
72761;SDS011;60886;55.034;73.150;2023-03-21T02:58:10;10.43;;;2.65;;
72761;SDS011;60886;55.034;73.150;2023-03-21T03:01:20;9.33;;;2.40;;
72761;SDS011;60886;55.034;73.150;2023-03-21T03:04:32;9.68;;;2.20;;
72761;SDS011;60886;55.034;73.150;2023-03-21T03:07:36;7.17;;;1.93;;
72761;SDS011;60886;55.034;73.150;2023-03-21T03:11:08;10.38;;;2.70;;
72761;SDS011;60886;55.034;73.150;2023-03-21T03:18:12;10.85;;;2.28;;
72761;SDS011;60886;55.034;73.150;2023-03-21T03:24:36;10.68;;;2.58;;
72761;SDS011;60886;55.034;73.150;2023-03-21T03:27:44;11.43;;;3.30;;
72761;SDS011;60886;55.034;73.150;2023-03-21T03:30:49;8.30;;;2.40;;
72761;SDS011;60886;55.034;73.150;2023-03-21T03:33:54;9.38;;;2.50;;
72761;SDS011;60886;55.034;73.150;2023-03-21T03:36:57;13.20;;;2.80;;
72761;SDS011;60886;55.034;73.150;2023-03-21T03:40:15;11.02;;;2.65;;
72761;SDS011;60886;55.034;73.150;2023-03-21T03:43:36;9.32;;;2.65;;
72761;SDS011;60886;55.034;73.150;2023-03-21T03:46:55;11.48;;;2.50;;
72761;SDS011;60886;55.034;73.150;2023-03-21T03:56:34;9.17;;;2.30;;
72761;SDS011;60886;55.034;73.150;2023-03-21T03:59:37;15.10;;;3.85;;
72761;SDS011;60886;55.034;73.150;2023-03-21T04:03:00;14.50;;;3.40;;
72761;SDS011;60886;55.034;73.150;2023-03-21T04:06:02;11.57;;;3.30;;
72761;SDS011;60886;55.034;73.150;2023-03-21T04:09:03;12.45;;;3.20;;
72761;SDS011;60886;55.034;73.150;2023-03-21T04:12:11;9.63;;;2.70;;
72761;SDS011;60886;55.034;73.150;2023-03-21T04:15:19;10.40;;;2.70;;
72761;SDS011;60886;55.034;73.150;2023-03-21T04:18:27;10.70;;;2.90;;
72761;SDS011;60886;55.034;73.150;2023-03-21T04:21:29;13.27;;;3.10;;
72761;SDS011;60886;55.034;73.150;2023-03-21T04:24:36;11.00;;;2.78;;
72761;SDS011;60886;55.034;73.150;2023-03-21T04:27:39;9.20;;;2.38;;
72761;SDS011;60886;55.034;73.150;2023-03-21T04:31:04;9.80;;;2.50;;
72761;SDS011;60886;55.034;73.150;2023-03-21T04:34:13;9.57;;;2.90;;
72761;SDS011;60886;55.034;73.150;2023-03-21T04:37:25;9.77;;;2.80;;
72761;SDS011;60886;55.034;73.150;2023-03-21T04:40:28;9.55;;;2.95;;
72761;SDS011;60886;55.034;73.150;2023-03-21T04:43:29;12.13;;;3.20;;
72761;SDS011;60886;55.034;73.150;2023-03-21T04:46:32;13.33;;;3.40;;
72761;SDS011;60886;55.034;73.150;2023-03-21T04:49:34;9.38;;;2.88;;
72761;SDS011;60886;55.034;73.150;2023-03-21T04:52:36;12.27;;;3.10;;
72761;SDS011;60886;55.034;73.150;2023-03-21T04:55:38;11.02;;;3.60;;
72761;SDS011;60886;55.034;73.150;2023-03-21T04:58:40;11.70;;;2.93;;
72761;SDS011;60886;55.034;73.150;2023-03-21T05:01:42;9.90;;;2.97;;
72761;SDS011;60886;55.034;73.150;2023-03-21T05:04:44;12.48;;;3.72;;
72761;SDS011;60886;55.034;73.150;2023-03-21T05:07:50;12.40;;;3.20;;
72761;SDS011;60886;55.034;73.150;2023-03-21T05:10:52;12.45;;;3.38;;
72761;SDS011;60886;55.034;73.150;2023-03-21T05:13:54;17.63;;;4.03;;
72761;SDS011;60886;55.034;73.150;2023-03-21T05:16:56;15.43;;;3.70;;
72761;SDS011;60886;55.034;73.150;2023-03-21T05:19:59;13.90;;;3.88;;
72761;SDS011;60886;55.034;73.150;2023-03-21T05:23:01;12.67;;;3.30;;
72761;SDS011;60886;55.034;73.150;2023-03-21T05:26:06;8.85;;;2.95;;
72761;SDS011;60886;55.034;73.150;2023-03-21T05:29:37;10.95;;;3.10;;
72761;SDS011;60886;55.034;73.150;2023-03-21T05:32:40;9.10;;;2.40;;
72761;SDS011;60886;55.034;73.150;2023-03-21T05:35:44;12.85;;;3.40;;
72761;SDS011;60886;55.034;73.150;2023-03-21T05:38:46;8.98;;;2.92;;
72761;SDS011;60886;55.034;73.150;2023-03-21T05:41:49;11.97;;;2.97;;
72761;SDS011;60886;55.034;73.150;2023-03-21T05:44:50;11.82;;;3.00;;
72761;SDS011;60886;55.034;73.150;2023-03-21T05:47:57;11.20;;;3.40;;
72761;SDS011;60886;55.034;73.150;2023-03-21T05:51:03;10.05;;;3.15;;
72761;SDS011;60886;55.034;73.150;2023-03-21T05:54:05;13.63;;;3.10;;
72761;SDS011;60886;55.034;73.150;2023-03-21T05:57:07;10.60;;;2.70;;
72761;SDS011;60886;55.034;73.150;2023-03-21T06:00:27;9.53;;;2.70;;
72761;SDS011;60886;55.034;73.150;2023-03-21T06:03:46;9.82;;;2.75;;
72761;SDS011;60886;55.034;73.150;2023-03-21T06:06:55;11.75;;;2.63;;
72761;SDS011;60886;55.034;73.150;2023-03-21T06:09:57;13.63;;;2.90;;
72761;SDS011;60886;55.034;73.150;2023-03-21T06:12:59;9.65;;;2.83;;
72761;SDS011;60886;55.034;73.150;2023-03-21T06:16:10;13.07;;;2.63;;
72761;SDS011;60886;55.034;73.150;2023-03-21T06:19:18;9.83;;;2.53;;
72761;SDS011;60886;55.034;73.150;2023-03-21T06:22:34;9.65;;;2.60;;
72761;SDS011;60886;55.034;73.150;2023-03-21T06:25:36;8.30;;;2.80;;
72761;SDS011;60886;55.034;73.150;2023-03-21T06:28:38;9.52;;;2.35;;
72761;SDS011;60886;55.034;73.150;2023-03-21T06:31:40;11.43;;;2.90;;
72761;SDS011;60886;55.034;73.150;2023-03-21T06:34:42;12.52;;;3.08;;
72761;SDS011;60886;55.034;73.150;2023-03-21T06:37:52;12.83;;;2.63;;
72761;SDS011;60886;55.034;73.150;2023-03-21T06:40:55;11.90;;;2.80;;
72761;SDS011;60886;55.034;73.150;2023-03-21T06:43:59;9.70;;;2.17;;
72761;SDS011;60886;55.034;73.150;2023-03-21T06:47:10;8.48;;;2.42;;
72761;SDS011;60886;55.034;73.150;2023-03-21T06:50:14;9.02;;;2.80;;
72761;SDS011;60886;55.034;73.150;2023-03-21T06:53:18;9.75;;;3.00;;
72761;SDS011;60886;55.034;73.150;2023-03-21T06:56:44;11.27;;;3.00;;
72761;SDS011;60886;55.034;73.150;2023-03-21T06:59:50;11.27;;;3.10;;
72761;SDS011;60886;55.034;73.150;2023-03-21T07:02:57;14.15;;;3.20;;
72761;SDS011;60886;55.034;73.150;2023-03-21T07:06:07;13.90;;;3.03;;
72761;SDS011;60886;55.034;73.150;2023-03-21T07:09:17;10.15;;;2.55;;
72761;SDS011;60886;55.034;73.150;2023-03-21T07:12:21;10.63;;;2.80;;
72761;SDS011;60886;55.034;73.150;2023-03-21T07:15:42;9.25;;;2.90;;
72761;SDS011;60886;55.034;73.150;2023-03-21T07:18:43;10.32;;;3.05;;
72761;SDS011;60886;55.034;73.150;2023-03-21T07:21:46;12.60;;;2.45;;
72761;SDS011;60886;55.034;73.150;2023-03-21T07:24:47;10.80;;;2.50;;
72761;SDS011;60886;55.034;73.150;2023-03-21T07:27:49;10.37;;;2.30;;
72761;SDS011;60886;55.034;73.150;2023-03-21T07:30:55;10.73;;;2.70;;
72761;SDS011;60886;55.034;73.150;2023-03-21T07:33:59;12.17;;;2.27;;
72761;SDS011;60886;55.034;73.150;2023-03-21T07:37:01;8.20;;;2.53;;
72761;SDS011;60886;55.034;73.150;2023-03-21T07:40:14;9.18;;;2.50;;
72761;SDS011;60886;55.034;73.150;2023-03-21T07:43:15;9.70;;;2.50;;
72761;SDS011;60886;55.034;73.150;2023-03-21T07:46:18;12.13;;;2.83;;
72761;SDS011;60886;55.034;73.150;2023-03-21T07:49:22;9.90;;;2.40;;
72761;SDS011;60886;55.034;73.150;2023-03-21T07:52:25;9.67;;;2.80;;
72761;SDS011;60886;55.034;73.150;2023-03-21T07:55:27;9.55;;;2.38;;
72761;SDS011;60886;55.034;73.150;2023-03-21T07:58:28;9.65;;;2.58;;
72761;SDS011;60886;55.034;73.150;2023-03-21T08:01:40;11.60;;;3.07;;
72761;SDS011;60886;55.034;73.150;2023-03-21T08:04:51;12.65;;;2.78;;
72761;SDS011;60886;55.034;73.150;2023-03-21T08:07:53;9.10;;;2.92;;
72761;SDS011;60886;55.034;73.150;2023-03-21T08:10:54;10.75;;;2.90;;
72761;SDS011;60886;55.034;73.150;2023-03-21T08:13:56;11.77;;;2.63;;
72761;SDS011;60886;55.034;73.150;2023-03-21T08:16:58;10.50;;;3.07;;
72761;SDS011;60886;55.034;73.150;2023-03-21T08:20:00;13.70;;;3.72;;
72761;SDS011;60886;55.034;73.150;2023-03-21T08:23:01;9.45;;;2.88;;
72761;SDS011;60886;55.034;73.150;2023-03-21T08:26:04;12.97;;;4.07;;
72761;SDS011;60886;55.034;73.150;2023-03-21T08:29:05;10.38;;;3.17;;
72761;SDS011;60886;55.034;73.150;2023-03-21T08:32:07;9.50;;;2.97;;
72761;SDS011;60886;55.034;73.150;2023-03-21T08:35:15;11.90;;;3.50;;
72761;SDS011;60886;55.034;73.150;2023-03-21T08:38:18;9.55;;;2.50;;
72761;SDS011;60886;55.034;73.150;2023-03-21T08:41:20;9.47;;;2.33;;
72761;SDS011;60886;55.034;73.150;2023-03-21T08:44:22;9.35;;;2.50;;
72761;SDS011;60886;55.034;73.150;2023-03-21T08:47:35;7.60;;;2.30;;
72761;SDS011;60886;55.034;73.150;2023-03-21T08:50:36;10.63;;;2.88;;
72761;SDS011;60886;55.034;73.150;2023-03-21T08:53:38;8.30;;;2.58;;
72761;SDS011;60886;55.034;73.150;2023-03-21T08:56:46;9.37;;;2.80;;
72761;SDS011;60886;55.034;73.150;2023-03-21T08:59:47;10.37;;;2.40;;
72761;SDS011;60886;55.034;73.150;2023-03-21T09:02:49;10.90;;;2.70;;
72761;SDS011;60886;55.034;73.150;2023-03-21T09:05:52;10.23;;;3.08;;
72761;SDS011;60886;55.034;73.150;2023-03-21T09:08:54;9.82;;;2.58;;
72761;SDS011;60886;55.034;73.150;2023-03-21T09:12:02;8.57;;;2.40;;
72761;SDS011;60886;55.034;73.150;2023-03-21T09:15:14;9.32;;;2.74;;
72761;SDS011;60886;55.034;73.150;2023-03-21T09:18:20;8.65;;;2.30;;
72761;SDS011;60886;55.034;73.150;2023-03-21T09:21:41;8.15;;;2.35;;
72761;SDS011;60886;55.034;73.150;2023-03-21T09:24:43;8.73;;;2.50;;
72761;SDS011;60886;55.034;73.150;2023-03-21T09:27:47;9.30;;;2.80;;
72761;SDS011;60886;55.034;73.150;2023-03-21T09:30:48;10.50;;;2.80;;
72761;SDS011;60886;55.034;73.150;2023-03-21T09:33:53;9.07;;;2.42;;
72761;SDS011;60886;55.034;73.150;2023-03-21T09:36:57;10.18;;;2.88;;
72761;SDS011;60886;55.034;73.150;2023-03-21T09:39:59;8.53;;;2.30;;
72761;SDS011;60886;55.034;73.150;2023-03-21T09:46:42;9.85;;;2.67;;
72761;SDS011;60886;55.034;73.150;2023-03-21T09:50:03;10.60;;;2.42;;
72761;SDS011;60886;55.034;73.150;2023-03-21T09:53:31;9.65;;;2.97;;
72761;SDS011;60886;55.034;73.150;2023-03-21T09:56:36;9.73;;;3.03;;
72761;SDS011;60886;55.034;73.150;2023-03-21T09:59:46;10.30;;;2.90;;
72761;SDS011;60886;55.034;73.150;2023-03-21T10:02:51;10.13;;;2.70;;
72761;SDS011;60886;55.034;73.150;2023-03-21T10:06:10;10.05;;;3.10;;
72761;SDS011;60886;55.034;73.150;2023-03-21T10:09:16;8.65;;;2.83;;
72761;SDS011;60886;55.034;73.150;2023-03-21T10:12:24;8.83;;;2.97;;
72761;SDS011;60886;55.034;73.150;2023-03-21T10:15:30;10.33;;;3.00;;
72761;SDS011;60886;55.034;73.150;2023-03-21T10:18:31;8.70;;;2.47;;
72761;SDS011;60886;55.034;73.150;2023-03-21T10:21:33;9.90;;;2.70;;
72761;SDS011;60886;55.034;73.150;2023-03-21T10:24:44;9.40;;;2.75;;
72761;SDS011;60886;55.034;73.150;2023-03-21T10:27:46;9.53;;;3.17;;
72761;SDS011;60886;55.034;73.150;2023-03-21T10:30:53;10.18;;;2.92;;
72761;SDS011;60886;55.034;73.150;2023-03-21T10:34:00;9.77;;;2.90;;
72761;SDS011;60886;55.034;73.150;2023-03-21T10:37:04;10.57;;;2.83;;
72761;SDS011;60886;55.034;73.150;2023-03-21T10:40:14;10.16;;;2.89;;
72761;SDS011;60886;55.034;73.150;2023-03-21T10:46:27;10.70;;;2.90;;
72761;SDS011;60886;55.034;73.150;2023-03-21T10:49:29;12.10;;;2.83;;
72761;SDS011;60886;55.034;73.150;2023-03-21T10:52:31;8.23;;;2.75;;
72761;SDS011;60886;55.034;73.150;2023-03-21T10:55:34;7.90;;;2.63;;
72761;SDS011;60886;55.034;73.150;2023-03-21T10:58:43;11.98;;;2.90;;
72761;SDS011;60886;55.034;73.150;2023-03-21T11:01:50;11.00;;;2.92;;
72761;SDS011;60886;55.034;73.150;2023-03-21T11:04:55;9.38;;;2.85;;
72761;SDS011;60886;55.034;73.150;2023-03-21T11:08:12;8.93;;;2.80;;
72761;SDS011;60886;55.034;73.150;2023-03-21T11:14:56;9.50;;;2.60;;
72761;SDS011;60886;55.034;73.150;2023-03-21T11:18:24;9.38;;;3.15;;
72761;SDS011;60886;55.034;73.150;2023-03-21T11:21:34;11.70;;;2.50;;
72761;SDS011;60886;55.034;73.150;2023-03-21T11:24:39;7.65;;;1.90;;
72761;SDS011;60886;55.034;73.150;2023-03-21T11:27:55;9.65;;;2.58;;
72761;SDS011;60886;55.034;73.150;2023-03-21T11:30:57;8.85;;;2.15;;
72761;SDS011;60886;55.034;73.150;2023-03-21T11:34:19;8.70;;;2.22;;
72761;SDS011;60886;55.034;73.150;2023-03-21T11:40:53;11.30;;;2.90;;
72761;SDS011;60886;55.034;73.150;2023-03-21T11:44:03;10.15;;;2.67;;
72761;SDS011;60886;55.034;73.150;2023-03-21T11:47:04;9.87;;;2.80;;
72761;SDS011;60886;55.034;73.150;2023-03-21T11:50:25;8.05;;;2.65;;
72761;SDS011;60886;55.034;73.150;2023-03-21T11:53:44;11.82;;;2.67;;
72761;SDS011;60886;55.034;73.150;2023-03-21T12:00:37;10.63;;;2.40;;
72761;SDS011;60886;55.034;73.150;2023-03-21T12:07:23;8.50;;;2.50;;
72761;SDS011;60886;55.034;73.150;2023-03-21T12:21:32;9.65;;;2.65;;
72761;SDS011;60886;55.034;73.150;2023-03-21T12:45:18;9.60;;;2.95;;
72761;SDS011;60886;55.034;73.150;2023-03-21T12:48:43;12.40;;;3.57;;
72761;SDS011;60886;55.034;73.150;2023-03-21T12:52:20;10.85;;;2.88;;
72761;SDS011;60886;55.034;73.150;2023-03-21T12:55:32;10.53;;;2.63;;
72761;SDS011;60886;55.034;73.150;2023-03-21T12:58:45;13.77;;;2.87;;
72761;SDS011;60886;55.034;73.150;2023-03-21T13:01:51;17.83;;;3.45;;
72761;SDS011;60886;55.034;73.150;2023-03-21T13:08:40;12.13;;;2.73;;
72761;SDS011;60886;55.034;73.150;2023-03-21T13:11:48;14.73;;;3.30;;
72761;SDS011;60886;55.034;73.150;2023-03-21T13:15:02;11.35;;;3.00;;
72761;SDS011;60886;55.034;73.150;2023-03-21T13:18:27;14.77;;;4.05;;
72761;SDS011;60886;55.034;73.150;2023-03-21T13:24:46;12.65;;;3.65;;
72761;SDS011;60886;55.034;73.150;2023-03-21T13:28:03;12.40;;;3.33;;
72761;SDS011;60886;55.034;73.150;2023-03-21T13:31:24;17.23;;;4.00;;
72761;SDS011;60886;55.034;73.150;2023-03-21T13:34:27;11.97;;;2.87;;
72761;SDS011;60886;55.034;73.150;2023-03-21T13:37:38;15.02;;;3.33;;
72761;SDS011;60886;55.034;73.150;2023-03-21T13:40:43;12.82;;;3.50;;
72761;SDS011;60886;55.034;73.150;2023-03-21T13:46:58;10.75;;;3.20;;
72761;SDS011;60886;55.034;73.150;2023-03-21T13:53:23;15.02;;;4.35;;
72761;SDS011;60886;55.034;73.150;2023-03-21T13:59:47;17.33;;;4.68;;
72761;SDS011;60886;55.034;73.150;2023-03-21T14:03:08;16.37;;;4.03;;
72761;SDS011;60886;55.034;73.150;2023-03-21T14:06:17;12.52;;;4.03;;
72761;SDS011;60886;55.034;73.150;2023-03-21T14:09:27;16.90;;;4.20;;
72761;SDS011;60886;55.034;73.150;2023-03-21T14:12:36;14.00;;;3.55;;
72761;SDS011;60886;55.034;73.150;2023-03-21T14:15:43;14.83;;;4.23;;
72761;SDS011;60886;55.034;73.150;2023-03-21T14:18:55;13.02;;;3.90;;
72761;SDS011;60886;55.034;73.150;2023-03-21T14:22:10;12.48;;;4.07;;
72761;SDS011;60886;55.034;73.150;2023-03-21T14:25:14;15.15;;;4.43;;
72761;SDS011;60886;55.034;73.150;2023-03-21T14:28:19;12.15;;;3.88;;
72761;SDS011;60886;55.034;73.150;2023-03-21T14:31:29;17.98;;;5.05;;
72761;SDS011;60886;55.034;73.150;2023-03-21T14:34:32;18.00;;;5.73;;
72761;SDS011;60886;55.034;73.150;2023-03-21T14:37:45;18.13;;;5.10;;
72761;SDS011;60886;55.034;73.150;2023-03-21T14:40:48;13.68;;;4.28;;
72761;SDS011;60886;55.034;73.150;2023-03-21T14:47:19;11.75;;;3.95;;
72761;SDS011;60886;55.034;73.150;2023-03-21T14:50:33;13.83;;;4.30;;
72761;SDS011;60886;55.034;73.150;2023-03-21T14:53:40;13.35;;;3.72;;
72761;SDS011;60886;55.034;73.150;2023-03-21T14:56:49;10.75;;;3.42;;
72761;SDS011;60886;55.034;73.150;2023-03-21T15:00:16;11.75;;;3.50;;
72761;SDS011;60886;55.034;73.150;2023-03-21T15:03:29;8.90;;;2.75;;
72761;SDS011;60886;55.034;73.150;2023-03-21T15:06:31;17.17;;;4.50;;
72761;SDS011;60886;55.034;73.150;2023-03-21T15:09:41;14.68;;;4.07;;
72761;SDS011;60886;55.034;73.150;2023-03-21T15:12:56;11.90;;;3.70;;
72761;SDS011;60886;55.034;73.150;2023-03-21T15:16:04;14.13;;;3.80;;
72761;SDS011;60886;55.034;73.150;2023-03-21T15:19:07;10.32;;;3.30;;
72761;SDS011;60886;55.034;73.150;2023-03-21T15:22:23;15.73;;;3.60;;
72761;SDS011;60886;55.034;73.150;2023-03-21T15:25:40;12.83;;;3.40;;
72761;SDS011;60886;55.034;73.150;2023-03-21T15:28:56;12.45;;;3.10;;
72761;SDS011;60886;55.034;73.150;2023-03-21T15:31:58;11.97;;;3.07;;
72761;SDS011;60886;55.034;73.150;2023-03-21T15:35:14;12.18;;;3.17;;
72761;SDS011;60886;55.034;73.150;2023-03-21T15:38:21;11.93;;;3.43;;
72761;SDS011;60886;55.034;73.150;2023-03-21T15:48:27;11.48;;;3.25;;
72761;SDS011;60886;55.034;73.150;2023-03-21T15:51:29;13.40;;;3.03;;
72761;SDS011;60886;55.034;73.150;2023-03-21T15:54:43;8.48;;;2.88;;
72761;SDS011;60886;55.034;73.150;2023-03-21T15:58:02;11.73;;;2.70;;
72761;SDS011;60886;55.034;73.150;2023-03-21T16:01:09;10.50;;;2.77;;
72761;SDS011;60886;55.034;73.150;2023-03-21T16:04:16;12.20;;;3.40;;
72761;SDS011;60886;55.034;73.150;2023-03-21T16:07:23;14.43;;;3.53;;
72761;SDS011;60886;55.034;73.150;2023-03-21T16:10:30;11.03;;;3.37;;
72761;SDS011;60886;55.034;73.150;2023-03-21T16:13:33;11.37;;;3.30;;
72761;SDS011;60886;55.034;73.150;2023-03-21T16:16:35;15.77;;;3.78;;
72761;SDS011;60886;55.034;73.150;2023-03-21T16:19:47;9.67;;;3.00;;
72761;SDS011;60886;55.034;73.150;2023-03-21T16:22:49;12.40;;;3.55;;
72761;SDS011;60886;55.034;73.150;2023-03-21T16:25:50;15.57;;;3.85;;
72761;SDS011;60886;55.034;73.150;2023-03-21T16:28:58;11.85;;;3.60;;
72761;SDS011;60886;55.034;73.150;2023-03-21T16:31:59;14.63;;;3.77;;
72761;SDS011;60886;55.034;73.150;2023-03-21T16:35:13;12.70;;;3.44;;
72761;SDS011;60886;55.034;73.150;2023-03-21T16:38:15;11.38;;;3.38;;
72761;SDS011;60886;55.034;73.150;2023-03-21T16:41:17;12.00;;;4.15;;
72761;SDS011;60886;55.034;73.150;2023-03-21T16:44:19;13.27;;;3.35;;
72761;SDS011;60886;55.034;73.150;2023-03-21T16:47:21;10.47;;;3.00;;
72761;SDS011;60886;55.034;73.150;2023-03-21T16:50:28;7.60;;;2.80;;
72761;SDS011;60886;55.034;73.150;2023-03-21T16:53:33;12.48;;;3.60;;
72761;SDS011;60886;55.034;73.150;2023-03-21T16:56:35;11.70;;;3.17;;
72761;SDS011;60886;55.034;73.150;2023-03-21T16:59:42;15.05;;;3.65;;
72761;SDS011;60886;55.034;73.150;2023-03-21T17:02:50;10.82;;;3.25;;
72761;SDS011;60886;55.034;73.150;2023-03-21T17:05:53;13.77;;;3.70;;
72761;SDS011;60886;55.034;73.150;2023-03-21T17:08:56;10.95;;;3.60;;
72761;SDS011;60886;55.034;73.150;2023-03-21T17:11:58;12.88;;;3.70;;
72761;SDS011;60886;55.034;73.150;2023-03-21T17:15:00;11.17;;;3.50;;
72761;SDS011;60886;55.034;73.150;2023-03-21T17:18:11;13.93;;;3.25;;
72761;SDS011;60886;55.034;73.150;2023-03-21T17:21:13;14.43;;;3.77;;
72761;SDS011;60886;55.034;73.150;2023-03-21T17:24:16;12.98;;;3.10;;
72761;SDS011;60886;55.034;73.150;2023-03-21T17:27:17;12.97;;;3.90;;
72761;SDS011;60886;55.034;73.150;2023-03-21T17:30:23;13.73;;;4.13;;
72761;SDS011;60886;55.034;73.150;2023-03-21T17:33:28;14.23;;;4.43;;
72761;SDS011;60886;55.034;73.150;2023-03-21T17:36:35;15.97;;;4.93;;
72761;SDS011;60886;55.034;73.150;2023-03-21T17:39:46;13.55;;;4.00;;
72761;SDS011;60886;55.034;73.150;2023-03-21T17:42:47;14.88;;;4.18;;
72761;SDS011;60886;55.034;73.150;2023-03-21T17:45:59;11.68;;;3.72;;
72761;SDS011;60886;55.034;73.150;2023-03-21T17:49:01;12.50;;;3.50;;
72761;SDS011;60886;55.034;73.150;2023-03-21T17:52:03;11.98;;;3.40;;
72761;SDS011;60886;55.034;73.150;2023-03-21T17:55:17;9.27;;;3.10;;
72761;SDS011;60886;55.034;73.150;2023-03-21T17:58:20;15.95;;;3.67;;
72761;SDS011;60886;55.034;73.150;2023-03-21T18:01:32;15.40;;;3.53;;
72761;SDS011;60886;55.034;73.150;2023-03-21T18:04:35;11.02;;;3.15;;
72761;SDS011;60886;55.034;73.150;2023-03-21T18:07:37;11.70;;;3.38;;
72761;SDS011;60886;55.034;73.150;2023-03-21T18:10:41;11.43;;;3.17;;
72761;SDS011;60886;55.034;73.150;2023-03-21T18:13:42;12.88;;;3.70;;
72761;SDS011;60886;55.034;73.150;2023-03-21T18:16:45;11.47;;;3.20;;
72761;SDS011;60886;55.034;73.150;2023-03-21T18:19:50;13.55;;;4.13;;
72761;SDS011;60886;55.034;73.150;2023-03-21T18:22:51;14.07;;;3.70;;
72761;SDS011;60886;55.034;73.150;2023-03-21T18:25:53;13.63;;;3.60;;
72761;SDS011;60886;55.034;73.150;2023-03-21T18:29:04;11.63;;;3.72;;
72761;SDS011;60886;55.034;73.150;2023-03-21T18:32:07;11.27;;;3.73;;
72761;SDS011;60886;55.034;73.150;2023-03-21T18:35:14;17.55;;;4.10;;
72761;SDS011;60886;55.034;73.150;2023-03-21T18:38:17;13.23;;;3.70;;
72761;SDS011;60886;55.034;73.150;2023-03-21T18:41:18;11.60;;;3.07;;
72761;SDS011;60886;55.034;73.150;2023-03-21T18:44:27;11.75;;;3.47;;
72761;SDS011;60886;55.034;73.150;2023-03-21T18:47:29;10.43;;;3.20;;
72761;SDS011;60886;55.034;73.150;2023-03-21T18:50:31;14.43;;;3.43;;
72761;SDS011;60886;55.034;73.150;2023-03-21T18:53:32;9.65;;;2.78;;
72761;SDS011;60886;55.034;73.150;2023-03-21T18:56:33;11.60;;;3.33;;
72761;SDS011;60886;55.034;73.150;2023-03-21T18:59:37;11.88;;;2.95;;
72761;SDS011;60886;55.034;73.150;2023-03-21T19:02:43;11.03;;;3.37;;
72761;SDS011;60886;55.034;73.150;2023-03-21T19:05:58;11.23;;;3.30;;
72761;SDS011;60886;55.034;73.150;2023-03-21T19:09:00;12.13;;;3.45;;
72761;SDS011;60886;55.034;73.150;2023-03-21T19:12:01;10.90;;;3.10;;
72761;SDS011;60886;55.034;73.150;2023-03-21T19:15:03;11.88;;;3.53;;
72761;SDS011;60886;55.034;73.150;2023-03-21T19:18:05;12.73;;;3.67;;
72761;SDS011;60886;55.034;73.150;2023-03-21T19:21:07;16.77;;;4.88;;
72761;SDS011;60886;55.034;73.150;2023-03-21T19:24:18;15.75;;;5.00;;
72761;SDS011;60886;55.034;73.150;2023-03-21T19:27:25;10.80;;;3.73;;
72761;SDS011;60886;55.034;73.150;2023-03-21T19:30:37;14.88;;;4.55;;
72761;SDS011;60886;55.034;73.150;2023-03-21T19:33:39;12.15;;;3.85;;
72761;SDS011;60886;55.034;73.150;2023-03-21T19:36:41;11.83;;;3.83;;
72761;SDS011;60886;55.034;73.150;2023-03-21T19:39:42;12.10;;;3.83;;
72761;SDS011;60886;55.034;73.150;2023-03-21T19:42:44;10.07;;;3.07;;
72761;SDS011;60886;55.034;73.150;2023-03-21T19:45:55;12.93;;;3.53;;
72761;SDS011;60886;55.034;73.150;2023-03-21T19:48:58;13.20;;;3.50;;
72761;SDS011;60886;55.034;73.150;2023-03-21T19:52:14;12.37;;;3.07;;
72761;SDS011;60886;55.034;73.150;2023-03-21T19:55:15;11.28;;;3.34;;
72761;SDS011;60886;55.034;73.150;2023-03-21T19:58:21;11.13;;;3.08;;
72761;SDS011;60886;55.034;73.150;2023-03-21T20:01:22;10.23;;;3.00;;
72761;SDS011;60886;55.034;73.150;2023-03-21T20:04:34;12.25;;;2.80;;
72761;SDS011;60886;55.034;73.150;2023-03-21T20:07:36;12.53;;;3.40;;
72761;SDS011;60886;55.034;73.150;2023-03-21T20:10:38;9.57;;;2.80;;
72761;SDS011;60886;55.034;73.150;2023-03-21T20:13:40;12.00;;;3.07;;
72761;SDS011;60886;55.034;73.150;2023-03-21T20:16:42;9.45;;;2.30;;
72761;SDS011;60886;55.034;73.150;2023-03-21T20:19:43;10.43;;;2.70;;
72761;SDS011;60886;55.034;73.150;2023-03-21T20:22:46;9.43;;;2.72;;